sensor_id;sensor_type;location;lat;lon;timestamp;temperature;humidity
3846;DHT22;1938;50.812;7.738;2022-08-21T00:01:21;14.70;99.90
3846;DHT22;1938;50.812;7.738;2022-08-21T00:03:47;14.60;99.90
3846;DHT22;1938;50.812;7.738;2022-08-21T00:06:13;14.50;1.00
3846;DHT22;1938;50.812;7.738;2022-08-21T00:08:39;14.40;1.00
3846;DHT22;1938;50.812;7.738;2022-08-21T00:11:05;14.20;26.50
3846;DHT22;1938;50.812;7.738;2022-08-21T00:13:30;14.20;94.00
3846;DHT22;1938;50.812;7.738;2022-08-21T00:15:57;14.20;99.90
3846;DHT22;1938;50.812;7.738;2022-08-21T00:18:24;14.10;99.90
3846;DHT22;1938;50.812;7.738;2022-08-21T00:20:50;14.10;99.90
3846;DHT22;1938;50.812;7.738;2022-08-21T00:23:16;14.10;1.00
3846;DHT22;1938;50.812;7.738;2022-08-21T00:25:43;14.10;1.00
3846;DHT22;1938;50.812;7.738;2022-08-21T00:28:09;14.10;1.00
3846;DHT22;1938;50.812;7.738;2022-08-21T00:30:36;14.10;99.90
3846;DHT22;1938;50.812;7.738;2022-08-21T00:33:02;14.10;99.90
3846;DHT22;1938;50.812;7.738;2022-08-21T00:35:31;14.10;16.50
3846;DHT22;1938;50.812;7.738;2022-08-21T00:37:59;14.10;88.60
3846;DHT22;1938;50.812;7.738;2022-08-21T00:40:33;13.90;1.00
3846;DHT22;1938;50.812;7.738;2022-08-21T00:42:59;13.70;99.90
3846;DHT22;1938;50.812;7.738;2022-08-21T00:45:25;13.50;99.90
3846;DHT22;1938;50.812;7.738;2022-08-21T00:47:53;13.30;99.90
3846;DHT22;1938;50.812;7.738;2022-08-21T00:50:21;13.30;1.00
3846;DHT22;1938;50.812;7.738;2022-08-21T00:52:47;13.20;1.00
3846;DHT22;1938;50.812;7.738;2022-08-21T00:55:13;13.20;1.00
3846;DHT22;1938;50.812;7.738;2022-08-21T00:57:51;13.30;1.00
3846;DHT22;1938;50.812;7.738;2022-08-21T01:00:21;13.20;1.00
3846;DHT22;1938;50.812;7.738;2022-08-21T01:02:47;13.20;1.00
3846;DHT22;1938;50.812;7.738;2022-08-21T01:05:13;13.10;21.10
3846;DHT22;1938;50.812;7.738;2022-08-21T01:07:40;13.10;28.50
3846;DHT22;1938;50.812;7.738;2022-08-21T01:10:07;13.10;38.00
3846;DHT22;1938;50.812;7.738;2022-08-21T01:12:34;13.00;62.50
3846;DHT22;1938;50.812;7.738;2022-08-21T01:15:01;13.00;77.40
3846;DHT22;1938;50.812;7.738;2022-08-21T01:17:26;13.00;85.70
3846;DHT22;1938;50.812;7.738;2022-08-21T01:19:56;13.00;57.40
3846;DHT22;1938;50.812;7.738;2022-08-21T01:22:22;13.00;54.60
3846;DHT22;1938;50.812;7.738;2022-08-21T01:24:49;13.10;46.90
3846;DHT22;1938;50.812;7.738;2022-08-21T01:27:15;13.10;36.40
3846;DHT22;1938;50.812;7.738;2022-08-21T01:29:54;13.00;33.10
3846;DHT22;1938;50.812;7.738;2022-08-21T01:32:21;13.10;25.70
3846;DHT22;1938;50.812;7.738;2022-08-21T01:34:50;13.10;8.80
3846;DHT22;1938;50.812;7.738;2022-08-21T01:37:17;13.00;17.40
3846;DHT22;1938;50.812;7.738;2022-08-21T01:39:42;13.00;34.50
3846;DHT22;1938;50.812;7.738;2022-08-21T01:42:09;12.90;35.40
3846;DHT22;1938;50.812;7.738;2022-08-21T01:44:34;12.90;68.60
3846;DHT22;1938;50.812;7.738;2022-08-21T01:47:04;12.90;74.90
3846;DHT22;1938;50.812;7.738;2022-08-21T01:49:30;13.00;53.30
3846;DHT22;1938;50.812;7.738;2022-08-21T01:51:55;13.00;27.00
3846;DHT22;1938;50.812;7.738;2022-08-21T01:54:21;13.00;1.00
3846;DHT22;1938;50.812;7.738;2022-08-21T01:56:49;13.00;1.00
3846;DHT22;1938;50.812;7.738;2022-08-21T01:59:15;13.10;1.00
3846;DHT22;1938;50.812;7.738;2022-08-21T02:01:40;13.00;99.90
3846;DHT22;1938;50.812;7.738;2022-08-21T02:04:08;13.00;99.90
3846;DHT22;1938;50.812;7.738;2022-08-21T02:06:34;13.00;99.90
3846;DHT22;1938;50.812;7.738;2022-08-21T02:09:01;13.00;8.50
3846;DHT22;1938;50.812;7.738;2022-08-21T02:11:26;13.00;1.00
3846;DHT22;1938;50.812;7.738;2022-08-21T02:13:52;13.00;1.00
3846;DHT22;1938;50.812;7.738;2022-08-21T02:16:18;13.00;1.00
3846;DHT22;1938;50.812;7.738;2022-08-21T02:18:43;13.00;1.00
3846;DHT22;1938;50.812;7.738;2022-08-21T02:21:09;12.90;1.00
3846;DHT22;1938;50.812;7.738;2022-08-21T02:23:35;12.90;1.00
3846;DHT22;1938;50.812;7.738;2022-08-21T02:26:03;12.90;1.00
3846;DHT22;1938;50.812;7.738;2022-08-21T02:28:29;13.00;1.00
3846;DHT22;1938;50.812;7.738;2022-08-21T02:30:55;13.00;1.00
3846;DHT22;1938;50.812;7.738;2022-08-21T02:33:22;12.90;1.00
3846;DHT22;1938;50.812;7.738;2022-08-21T02:35:49;12.90;1.00
3846;DHT22;1938;50.812;7.738;2022-08-21T02:38:20;12.90;1.00
3846;DHT22;1938;50.812;7.738;2022-08-21T02:40:48;12.80;1.00
3846;DHT22;1938;50.812;7.738;2022-08-21T02:43:15;12.80;1.00
3846;DHT22;1938;50.812;7.738;2022-08-21T02:45:42;12.80;1.00
3846;DHT22;1938;50.812;7.738;2022-08-21T02:48:11;12.80;99.90
3846;DHT22;1938;50.812;7.738;2022-08-21T02:50:41;12.70;99.90
3846;DHT22;1938;50.812;7.738;2022-08-21T02:53:10;12.70;99.90
3846;DHT22;1938;50.812;7.738;2022-08-21T02:55:37;12.70;99.90
3846;DHT22;1938;50.812;7.738;2022-08-21T02:58:05;12.60;99.90
3846;DHT22;1938;50.812;7.738;2022-08-21T03:00:32;12.50;1.00
3846;DHT22;1938;50.812;7.738;2022-08-21T03:02:59;12.40;1.00
3846;DHT22;1938;50.812;7.738;2022-08-21T03:05:26;12.40;1.00
3846;DHT22;1938;50.812;7.738;2022-08-21T03:07:52;12.40;1.00
3846;DHT22;1938;50.812;7.738;2022-08-21T03:10:21;12.40;1.00
3846;DHT22;1938;50.812;7.738;2022-08-21T03:12:48;12.40;1.00
3846;DHT22;1938;50.812;7.738;2022-08-21T03:15:20;12.30;32.80
3846;DHT22;1938;50.812;7.738;2022-08-21T03:17:47;12.30;65.00
3846;DHT22;1938;50.812;7.738;2022-08-21T03:20:16;12.40;38.70
3846;DHT22;1938;50.812;7.738;2022-08-21T03:22:41;12.40;42.90
3846;DHT22;1938;50.812;7.738;2022-08-21T03:25:07;12.40;40.10
3846;DHT22;1938;50.812;7.738;2022-08-21T03:27:33;12.40;41.10
3846;DHT22;1938;50.812;7.738;2022-08-21T03:30:00;12.30;39.00
3846;DHT22;1938;50.812;7.738;2022-08-21T03:32:26;12.20;96.20
3846;DHT22;1938;50.812;7.738;2022-08-21T03:34:52;12.10;99.90
3846;DHT22;1938;50.812;7.738;2022-08-21T03:37:17;12.10;99.90
3846;DHT22;1938;50.812;7.738;2022-08-21T03:39:43;12.00;99.90
3846;DHT22;1938;50.812;7.738;2022-08-21T03:42:10;12.00;99.90
3846;DHT22;1938;50.812;7.738;2022-08-21T03:44:36;12.00;99.90
3846;DHT22;1938;50.812;7.738;2022-08-21T03:47:02;12.00;99.90
3846;DHT22;1938;50.812;7.738;2022-08-21T03:49:28;11.90;99.90
3846;DHT22;1938;50.812;7.738;2022-08-21T03:51:53;11.90;99.90
3846;DHT22;1938;50.812;7.738;2022-08-21T03:54:19;11.90;99.90
3846;DHT22;1938;50.812;7.738;2022-08-21T03:56:45;11.90;99.90
3846;DHT22;1938;50.812;7.738;2022-08-21T03:59:12;11.90;99.90
3846;DHT22;1938;50.812;7.738;2022-08-21T04:01:37;11.80;99.90
3846;DHT22;1938;50.812;7.738;2022-08-21T04:04:05;11.80;99.90
3846;DHT22;1938;50.812;7.738;2022-08-21T04:06:31;11.80;99.90
3846;DHT22;1938;50.812;7.738;2022-08-21T04:08:56;11.80;99.90
3846;DHT22;1938;50.812;7.738;2022-08-21T04:11:22;11.90;99.90
3846;DHT22;1938;50.812;7.738;2022-08-21T04:13:47;11.80;99.90
3846;DHT22;1938;50.812;7.738;2022-08-21T04:16:13;11.90;99.90
3846;DHT22;1938;50.812;7.738;2022-08-21T04:18:39;11.90;99.90
3846;DHT22;1938;50.812;7.738;2022-08-21T04:21:05;11.90;99.90
3846;DHT22;1938;50.812;7.738;2022-08-21T04:23:31;11.90;99.90
3846;DHT22;1938;50.812;7.738;2022-08-21T04:25:58;12.00;99.90
3846;DHT22;1938;50.812;7.738;2022-08-21T04:28:25;12.00;99.90
3846;DHT22;1938;50.812;7.738;2022-08-21T04:30:51;11.90;99.90
3846;DHT22;1938;50.812;7.738;2022-08-21T04:33:17;11.90;99.90
3846;DHT22;1938;50.812;7.738;2022-08-21T04:35:43;11.80;99.90
3846;DHT22;1938;50.812;7.738;2022-08-21T04:38:09;11.80;99.90
3846;DHT22;1938;50.812;7.738;2022-08-21T04:40:34;11.70;99.90
3846;DHT22;1938;50.812;7.738;2022-08-21T04:43:07;11.70;99.90
3846;DHT22;1938;50.812;7.738;2022-08-21T04:45:41;11.60;99.90
3846;DHT22;1938;50.812;7.738;2022-08-21T04:48:09;11.70;99.90
3846;DHT22;1938;50.812;7.738;2022-08-21T04:53:10;11.60;99.90
3846;DHT22;1938;50.812;7.738;2022-08-21T04:55:37;11.50;99.90
3846;DHT22;1938;50.812;7.738;2022-08-21T04:58:08;11.60;99.90
3846;DHT22;1938;50.812;7.738;2022-08-21T05:00:34;11.60;99.90
3846;DHT22;1938;50.812;7.738;2022-08-21T05:03:00;11.70;99.90
3846;DHT22;1938;50.812;7.738;2022-08-21T05:05:29;11.60;99.90
3846;DHT22;1938;50.812;7.738;2022-08-21T05:07:57;11.70;99.90
3846;DHT22;1938;50.812;7.738;2022-08-21T05:10:24;11.80;99.90
3846;DHT22;1938;50.812;7.738;2022-08-21T05:12:50;11.90;99.90
3846;DHT22;1938;50.812;7.738;2022-08-21T05:15:16;11.90;99.90
3846;DHT22;1938;50.812;7.738;2022-08-21T05:17:42;12.10;99.90
3846;DHT22;1938;50.812;7.738;2022-08-21T05:20:12;13.10;99.90
3846;DHT22;1938;50.812;7.738;2022-08-21T05:22:38;15.20;1.00
3846;DHT22;1938;50.812;7.738;2022-08-21T05:25:06;17.50;99.90
3846;DHT22;1938;50.812;7.738;2022-08-21T05:27:32;19.00;99.90
3846;DHT22;1938;50.812;7.738;2022-08-21T05:29:58;20.20;1.00
3846;DHT22;1938;50.812;7.738;2022-08-21T05:32:24;21.70;1.00
3846;DHT22;1938;50.812;7.738;2022-08-21T05:34:50;22.80;99.90
3846;DHT22;1938;50.812;7.738;2022-08-21T05:37:16;23.50;99.90
3846;DHT22;1938;50.812;7.738;2022-08-21T05:39:41;23.90;99.90
3846;DHT22;1938;50.812;7.738;2022-08-21T05:42:07;25.40;99.90
3846;DHT22;1938;50.812;7.738;2022-08-21T05:44:33;27.10;99.90
3846;DHT22;1938;50.812;7.738;2022-08-21T05:47:06;26.50;99.90
3846;DHT22;1938;50.812;7.738;2022-08-21T05:49:34;28.10;99.90
3846;DHT22;1938;50.812;7.738;2022-08-21T05:52:00;29.10;99.90
3846;DHT22;1938;50.812;7.738;2022-08-21T05:54:26;29.20;99.90
3846;DHT22;1938;50.812;7.738;2022-08-21T05:56:51;29.30;97.20
3846;DHT22;1938;50.812;7.738;2022-08-21T05:59:17;30.40;90.80
3846;DHT22;1938;50.812;7.738;2022-08-21T06:01:43;29.60;76.70
3846;DHT22;1938;50.812;7.738;2022-08-21T06:04:10;29.10;68.30
3846;DHT22;1938;50.812;7.738;2022-08-21T06:06:36;29.60;59.60
3846;DHT22;1938;50.812;7.738;2022-08-21T06:09:02;30.30;55.40
3846;DHT22;1938;50.812;7.738;2022-08-21T06:11:28;30.60;50.80
3846;DHT22;1938;50.812;7.738;2022-08-21T06:13:53;31.30;46.30
3846;DHT22;1938;50.812;7.738;2022-08-21T06:16:19;30.60;40.30
3846;DHT22;1938;50.812;7.738;2022-08-21T06:18:45;30.00;35.60
3846;DHT22;1938;50.812;7.738;2022-08-21T06:21:11;30.90;34.70
3846;DHT22;1938;50.812;7.738;2022-08-21T06:23:37;31.70;31.90
3846;DHT22;1938;50.812;7.738;2022-08-21T06:26:03;31.00;27.50
3846;DHT22;1938;50.812;7.738;2022-08-21T06:28:30;31.50;26.30
3846;DHT22;1938;50.812;7.738;2022-08-21T06:30:56;31.30;23.20
3846;DHT22;1938;50.812;7.738;2022-08-21T06:33:22;31.90;21.50
3846;DHT22;1938;50.812;7.738;2022-08-21T06:35:47;33.10;24.50
3846;DHT22;1938;50.812;7.738;2022-08-21T06:38:13;34.40;18.00
3846;DHT22;1938;50.812;7.738;2022-08-21T06:40:40;34.60;13.90
3846;DHT22;1938;50.812;7.738;2022-08-21T06:43:08;34.50;10.80
3846;DHT22;1938;50.812;7.738;2022-08-21T06:45:34;35.80;9.10
3846;DHT22;1938;50.812;7.738;2022-08-21T06:48:00;35.50;5.60
3846;DHT22;1938;50.812;7.738;2022-08-21T06:50:25;36.20;3.90
3846;DHT22;1938;50.812;7.738;2022-08-21T06:52:59;34.80;1.00
3846;DHT22;1938;50.812;7.738;2022-08-21T06:55:25;35.30;1.00
3846;DHT22;1938;50.812;7.738;2022-08-21T06:57:50;36.10;1.00
3846;DHT22;1938;50.812;7.738;2022-08-21T07:00:16;36.50;1.00
3846;DHT22;1938;50.812;7.738;2022-08-21T07:02:41;35.50;1.00
3846;DHT22;1938;50.812;7.738;2022-08-21T07:05:07;33.50;1.00
3846;DHT22;1938;50.812;7.738;2022-08-21T07:07:33;34.60;1.00
3846;DHT22;1938;50.812;7.738;2022-08-21T07:09:58;35.30;1.00
3846;DHT22;1938;50.812;7.738;2022-08-21T07:12:24;35.40;1.00
3846;DHT22;1938;50.812;7.738;2022-08-21T07:14:51;33.70;1.00
3846;DHT22;1938;50.812;7.738;2022-08-21T07:17:17;34.00;1.00
3846;DHT22;1938;50.812;7.738;2022-08-21T07:19:42;35.40;1.00
3846;DHT22;1938;50.812;7.738;2022-08-21T07:22:08;35.10;1.00
3846;DHT22;1938;50.812;7.738;2022-08-21T07:24:34;36.20;1.00
3846;DHT22;1938;50.812;7.738;2022-08-21T07:26:59;36.80;1.00
3846;DHT22;1938;50.812;7.738;2022-08-21T07:29:26;37.50;1.00
3846;DHT22;1938;50.812;7.738;2022-08-21T07:31:52;37.90;1.00
3846;DHT22;1938;50.812;7.738;2022-08-21T07:34:17;38.40;1.00
3846;DHT22;1938;50.812;7.738;2022-08-21T07:36:43;38.80;1.00
3846;DHT22;1938;50.812;7.738;2022-08-21T07:39:08;39.20;1.00
3846;DHT22;1938;50.812;7.738;2022-08-21T07:41:34;39.50;1.00
3846;DHT22;1938;50.812;7.738;2022-08-21T07:44:00;39.50;1.00
3846;DHT22;1938;50.812;7.738;2022-08-21T07:46:26;39.10;1.00
3846;DHT22;1938;50.812;7.738;2022-08-21T07:48:52;39.00;1.00
3846;DHT22;1938;50.812;7.738;2022-08-21T07:51:19;39.40;1.00
3846;DHT22;1938;50.812;7.738;2022-08-21T07:53:54;40.00;1.00
3846;DHT22;1938;50.812;7.738;2022-08-21T07:56:21;39.70;1.00
3846;DHT22;1938;50.812;7.738;2022-08-21T07:58:48;39.30;1.00
3846;DHT22;1938;50.812;7.738;2022-08-21T08:01:14;39.90;1.00
3846;DHT22;1938;50.812;7.738;2022-08-21T08:03:40;40.30;1.00
3846;DHT22;1938;50.812;7.738;2022-08-21T08:06:06;40.70;1.00
3846;DHT22;1938;50.812;7.738;2022-08-21T08:08:34;41.00;1.00
3846;DHT22;1938;50.812;7.738;2022-08-21T08:10:59;41.30;1.00
3846;DHT22;1938;50.812;7.738;2022-08-21T08:13:26;41.50;1.00
3846;DHT22;1938;50.812;7.738;2022-08-21T08:15:52;41.80;1.00
3846;DHT22;1938;50.812;7.738;2022-08-21T08:18:18;41.90;1.00
3846;DHT22;1938;50.812;7.738;2022-08-21T08:20:44;41.80;1.00
3846;DHT22;1938;50.812;7.738;2022-08-21T08:23:14;41.80;1.00
3846;DHT22;1938;50.812;7.738;2022-08-21T08:25:40;41.80;1.00
3846;DHT22;1938;50.812;7.738;2022-08-21T08:28:06;41.80;1.00
3846;DHT22;1938;50.812;7.738;2022-08-21T08:30:32;41.00;1.00
3846;DHT22;1938;50.812;7.738;2022-08-21T08:32:57;41.50;1.00
3846;DHT22;1938;50.812;7.738;2022-08-21T08:35:25;41.90;1.00
3846;DHT22;1938;50.812;7.738;2022-08-21T08:37:50;41.80;1.00
3846;DHT22;1938;50.812;7.738;2022-08-21T08:42:55;42.00;1.00
3846;DHT22;1938;50.812;7.738;2022-08-21T08:45:22;41.90;1.00
3846;DHT22;1938;50.812;7.738;2022-08-21T08:47:55;41.90;1.00
3846;DHT22;1938;50.812;7.738;2022-08-21T08:53:11;42.00;1.00
3846;DHT22;1938;50.812;7.738;2022-08-21T08:55:42;42.00;1.00
3846;DHT22;1938;50.812;7.738;2022-08-21T08:58:20;42.10;1.00
3846;DHT22;1938;50.812;7.738;2022-08-21T09:00:49;41.80;1.00
3846;DHT22;1938;50.812;7.738;2022-08-21T09:03:16;41.90;1.00
3846;DHT22;1938;50.812;7.738;2022-08-21T09:05:43;42.10;1.00
3846;DHT22;1938;50.812;7.738;2022-08-21T09:11:40;42.50;1.00
3846;DHT22;1938;50.812;7.738;2022-08-21T09:14:23;42.90;1.00
3846;DHT22;1938;50.812;7.738;2022-08-21T09:17:01;43.10;1.00
3846;DHT22;1938;50.812;7.738;2022-08-21T09:22:45;42.90;1.00
3846;DHT22;1938;50.812;7.738;2022-08-21T09:25:25;42.30;1.00
3846;DHT22;1938;50.812;7.738;2022-08-21T09:27:52;40.90;1.00
3846;DHT22;1938;50.812;7.738;2022-08-21T09:30:19;40.20;1.00
3846;DHT22;1938;50.812;7.738;2022-08-21T09:32:48;39.50;1.00
3846;DHT22;1938;50.812;7.738;2022-08-21T09:35:17;38.60;1.00
3846;DHT22;1938;50.812;7.738;2022-08-21T09:40:31;36.90;1.00
3846;DHT22;1938;50.812;7.738;2022-08-21T09:43:21;36.60;1.00
3846;DHT22;1938;50.812;7.738;2022-08-21T09:45:49;35.80;1.00
3846;DHT22;1938;50.812;7.738;2022-08-21T09:48:25;35.50;1.00
3846;DHT22;1938;50.812;7.738;2022-08-21T09:50:53;35.10;1.00
3846;DHT22;1938;50.812;7.738;2022-08-21T09:53:23;34.70;1.00
3846;DHT22;1938;50.812;7.738;2022-08-21T09:55:55;34.10;1.00
3846;DHT22;1938;50.812;7.738;2022-08-21T09:58:42;33.60;1.00
3846;DHT22;1938;50.812;7.738;2022-08-21T10:01:16;33.00;1.00
3846;DHT22;1938;50.812;7.738;2022-08-21T10:03:42;32.40;1.00
3846;DHT22;1938;50.812;7.738;2022-08-21T10:06:09;32.00;1.00
3846;DHT22;1938;50.812;7.738;2022-08-21T10:08:38;31.70;1.00
3846;DHT22;1938;50.812;7.738;2022-08-21T10:11:13;31.60;1.00
3846;DHT22;1938;50.812;7.738;2022-08-21T10:14:08;31.30;1.00
3846;DHT22;1938;50.812;7.738;2022-08-21T10:24:44;30.20;1.00
3846;DHT22;1938;50.812;7.738;2022-08-21T10:30:12;30.00;1.00
3846;DHT22;1938;50.812;7.738;2022-08-21T10:32:59;29.70;1.00
3846;DHT22;1938;50.812;7.738;2022-08-21T10:35:52;29.50;1.00
3846;DHT22;1938;50.812;7.738;2022-08-21T10:41:28;29.50;1.00
3846;DHT22;1938;50.812;7.738;2022-08-21T10:44:03;29.40;1.00
3846;DHT22;1938;50.812;7.738;2022-08-21T10:52:17;29.40;1.00
3846;DHT22;1938;50.812;7.738;2022-08-21T10:54:52;29.50;1.00
3846;DHT22;1938;50.812;7.738;2022-08-21T10:57:40;29.60;1.00
3846;DHT22;1938;50.812;7.738;2022-08-21T11:00:15;29.50;1.00
3846;DHT22;1938;50.812;7.738;2022-08-21T11:03:08;29.50;1.00
3846;DHT22;1938;50.812;7.738;2022-08-21T11:05:48;29.40;1.00
3846;DHT22;1938;50.812;7.738;2022-08-21T11:08:23;29.20;1.00
3846;DHT22;1938;50.812;7.738;2022-08-21T11:10:53;29.20;1.00
3846;DHT22;1938;50.812;7.738;2022-08-21T11:13:44;29.20;1.00
3846;DHT22;1938;50.812;7.738;2022-08-21T11:16:21;29.20;1.00
3846;DHT22;1938;50.812;7.738;2022-08-21T11:21:41;29.10;1.00
3846;DHT22;1938;50.812;7.738;2022-08-21T11:24:32;29.00;1.00
3846;DHT22;1938;50.812;7.738;2022-08-21T11:29:38;29.00;1.00
3846;DHT22;1938;50.812;7.738;2022-08-21T11:35:20;28.80;1.00
3846;DHT22;1938;50.812;7.738;2022-08-21T11:41:01;28.90;1.00
3846;DHT22;1938;50.812;7.738;2022-08-21T11:43:40;28.80;1.00
3846;DHT22;1938;50.812;7.738;2022-08-21T11:54:52;28.60;1.00
3846;DHT22;1938;50.812;7.738;2022-08-21T11:58:06;28.50;1.00
3846;DHT22;1938;50.812;7.738;2022-08-21T12:00:47;28.40;1.00
3846;DHT22;1938;50.812;7.738;2022-08-21T12:06:07;28.00;1.00
3846;DHT22;1938;50.812;7.738;2022-08-21T12:08:39;28.00;1.00
3846;DHT22;1938;50.812;7.738;2022-08-21T12:13:59;27.80;1.00
3846;DHT22;1938;50.812;7.738;2022-08-21T12:16:36;27.90;1.00
3846;DHT22;1938;50.812;7.738;2022-08-21T12:19:08;28.10;1.00
3846;DHT22;1938;50.812;7.738;2022-08-21T12:24:17;28.20;1.00
3846;DHT22;1938;50.812;7.738;2022-08-21T12:26:51;28.30;1.00
3846;DHT22;1938;50.812;7.738;2022-08-21T12:29:32;28.20;1.00
3846;DHT22;1938;50.812;7.738;2022-08-21T12:34:47;28.50;1.00
3846;DHT22;1938;50.812;7.738;2022-08-21T12:39:54;28.80;1.00
3846;DHT22;1938;50.812;7.738;2022-08-21T12:42:23;28.90;1.00
3846;DHT22;1938;50.812;7.738;2022-08-21T12:45:03;29.00;1.00
3846;DHT22;1938;50.812;7.738;2022-08-21T12:47:55;29.10;1.00
3846;DHT22;1938;50.812;7.738;2022-08-21T12:50:35;29.20;1.00
3846;DHT22;1938;50.812;7.738;2022-08-21T12:55:52;29.50;1.00
3846;DHT22;1938;50.812;7.738;2022-08-21T12:58:23;29.40;1.00
3846;DHT22;1938;50.812;7.738;2022-08-21T13:00:52;29.60;1.00
3846;DHT22;1938;50.812;7.738;2022-08-21T13:03:18;29.40;1.00
3846;DHT22;1938;50.812;7.738;2022-08-21T13:05:44;29.50;1.00
3846;DHT22;1938;50.812;7.738;2022-08-21T13:08:12;29.50;1.00
3846;DHT22;1938;50.812;7.738;2022-08-21T13:10:40;29.00;1.00
3846;DHT22;1938;50.812;7.738;2022-08-21T13:13:12;28.80;1.00
3846;DHT22;1938;50.812;7.738;2022-08-21T13:15:41;28.90;1.00
3846;DHT22;1938;50.812;7.738;2022-08-21T13:18:07;29.10;1.00
3846;DHT22;1938;50.812;7.738;2022-08-21T13:20:35;29.00;1.00
3846;DHT22;1938;50.812;7.738;2022-08-21T13:23:05;29.10;1.00
3846;DHT22;1938;50.812;7.738;2022-08-21T13:25:35;29.00;1.00
3846;DHT22;1938;50.812;7.738;2022-08-21T13:28:06;28.90;1.00
3846;DHT22;1938;50.812;7.738;2022-08-21T13:30:32;29.00;1.00
3846;DHT22;1938;50.812;7.738;2022-08-21T13:33:01;28.90;1.00
3846;DHT22;1938;50.812;7.738;2022-08-21T13:35:44;28.80;1.00
3846;DHT22;1938;50.812;7.738;2022-08-21T13:38:12;28.90;1.00
3846;DHT22;1938;50.812;7.738;2022-08-21T13:40:47;29.00;1.00
3846;DHT22;1938;50.812;7.738;2022-08-21T13:43:17;29.00;1.00
3846;DHT22;1938;50.812;7.738;2022-08-21T13:45:48;29.20;1.00
3846;DHT22;1938;50.812;7.738;2022-08-21T13:48:14;29.10;1.00
3846;DHT22;1938;50.812;7.738;2022-08-21T13:50:41;29.00;1.00
3846;DHT22;1938;50.812;7.738;2022-08-21T13:53:21;28.90;1.00
3846;DHT22;1938;50.812;7.738;2022-08-21T13:55:47;28.80;1.00
3846;DHT22;1938;50.812;7.738;2022-08-21T13:58:24;28.80;1.00
3846;DHT22;1938;50.812;7.738;2022-08-21T14:00:51;28.80;1.00
3846;DHT22;1938;50.812;7.738;2022-08-21T14:03:34;28.70;1.00
3846;DHT22;1938;50.812;7.738;2022-08-21T14:06:02;28.70;1.00
3846;DHT22;1938;50.812;7.738;2022-08-21T14:08:37;28.50;1.00
3846;DHT22;1938;50.812;7.738;2022-08-21T14:11:05;28.30;1.00
3846;DHT22;1938;50.812;7.738;2022-08-21T14:13:40;28.20;1.00
3846;DHT22;1938;50.812;7.738;2022-08-21T14:18:50;28.10;1.00
3846;DHT22;1938;50.812;7.738;2022-08-21T14:21:31;28.10;1.00
3846;DHT22;1938;50.812;7.738;2022-08-21T14:26:53;28.00;1.00
3846;DHT22;1938;50.812;7.738;2022-08-21T14:29:22;28.00;1.00
3846;DHT22;1938;50.812;7.738;2022-08-21T14:31:57;28.10;1.00
3846;DHT22;1938;50.812;7.738;2022-08-21T14:34:25;27.90;1.00
3846;DHT22;1938;50.812;7.738;2022-08-21T14:36:52;27.70;1.00
3846;DHT22;1938;50.812;7.738;2022-08-21T14:39:18;27.60;1.00
3846;DHT22;1938;50.812;7.738;2022-08-21T14:41:44;27.50;1.00
3846;DHT22;1938;50.812;7.738;2022-08-21T14:44:13;27.40;1.00
3846;DHT22;1938;50.812;7.738;2022-08-21T14:46:39;27.20;1.00
3846;DHT22;1938;50.812;7.738;2022-08-21T14:49:04;27.30;1.00
3846;DHT22;1938;50.812;7.738;2022-08-21T14:51:30;27.20;1.00
3846;DHT22;1938;50.812;7.738;2022-08-21T14:53:56;27.40;1.00
3846;DHT22;1938;50.812;7.738;2022-08-21T14:56:22;27.20;1.00
3846;DHT22;1938;50.812;7.738;2022-08-21T14:58:49;27.20;1.00
3846;DHT22;1938;50.812;7.738;2022-08-21T15:01:18;27.30;1.00
3846;DHT22;1938;50.812;7.738;2022-08-21T15:03:45;27.40;1.00
3846;DHT22;1938;50.812;7.738;2022-08-21T15:06:12;27.40;1.00
3846;DHT22;1938;50.812;7.738;2022-08-21T15:08:38;27.40;1.00
3846;DHT22;1938;50.812;7.738;2022-08-21T15:11:05;27.30;1.00
3846;DHT22;1938;50.812;7.738;2022-08-21T15:13:32;27.30;1.00
3846;DHT22;1938;50.812;7.738;2022-08-21T15:15:58;27.20;1.00
3846;DHT22;1938;50.812;7.738;2022-08-21T15:18:26;27.10;1.00
3846;DHT22;1938;50.812;7.738;2022-08-21T15:20:51;27.10;1.00
3846;DHT22;1938;50.812;7.738;2022-08-21T15:23:18;27.10;1.00
3846;DHT22;1938;50.812;7.738;2022-08-21T15:25:46;27.20;1.00
3846;DHT22;1938;50.812;7.738;2022-08-21T15:28:12;26.90;1.00
3846;DHT22;1938;50.812;7.738;2022-08-21T15:30:39;26.60;1.00
3846;DHT22;1938;50.812;7.738;2022-08-21T15:33:06;26.60;1.00
3846;DHT22;1938;50.812;7.738;2022-08-21T15:35:32;26.50;1.00
3846;DHT22;1938;50.812;7.738;2022-08-21T15:37:58;26.40;1.00
3846;DHT22;1938;50.812;7.738;2022-08-21T15:40:24;26.30;1.00
3846;DHT22;1938;50.812;7.738;2022-08-21T15:42:52;26.20;1.00
3846;DHT22;1938;50.812;7.738;2022-08-21T15:45:20;26.00;1.00
3846;DHT22;1938;50.812;7.738;2022-08-21T15:47:49;26.00;1.00
3846;DHT22;1938;50.812;7.738;2022-08-21T15:50:14;26.00;1.00
3846;DHT22;1938;50.812;7.738;2022-08-21T15:52:40;25.90;1.00
3846;DHT22;1938;50.812;7.738;2022-08-21T15:55:06;25.90;1.00
3846;DHT22;1938;50.812;7.738;2022-08-21T15:57:32;25.90;1.00
3846;DHT22;1938;50.812;7.738;2022-08-21T16:00:03;25.90;1.00
3846;DHT22;1938;50.812;7.738;2022-08-21T16:02:36;25.90;1.00
3846;DHT22;1938;50.812;7.738;2022-08-21T16:05:02;25.80;1.00
3846;DHT22;1938;50.812;7.738;2022-08-21T16:07:28;25.70;1.00
3846;DHT22;1938;50.812;7.738;2022-08-21T16:09:54;25.70;1.00
3846;DHT22;1938;50.812;7.738;2022-08-21T16:12:22;25.70;1.00
3846;DHT22;1938;50.812;7.738;2022-08-21T16:14:50;25.80;1.00
3846;DHT22;1938;50.812;7.738;2022-08-21T16:17:17;25.80;1.00
3846;DHT22;1938;50.812;7.738;2022-08-21T16:19:43;25.90;1.00
3846;DHT22;1938;50.812;7.738;2022-08-21T16:22:08;26.00;1.00
3846;DHT22;1938;50.812;7.738;2022-08-21T16:24:34;25.90;1.00
3846;DHT22;1938;50.812;7.738;2022-08-21T16:27:01;25.90;1.00
3846;DHT22;1938;50.812;7.738;2022-08-21T16:29:30;25.70;1.00
3846;DHT22;1938;50.812;7.738;2022-08-21T16:31:57;25.60;1.00
3846;DHT22;1938;50.812;7.738;2022-08-21T16:34:23;25.70;1.00
3846;DHT22;1938;50.812;7.738;2022-08-21T16:36:49;25.80;1.00
3846;DHT22;1938;50.812;7.738;2022-08-21T16:39:14;25.80;1.00
3846;DHT22;1938;50.812;7.738;2022-08-21T16:41:40;25.80;1.00
3846;DHT22;1938;50.812;7.738;2022-08-21T16:44:06;25.70;1.00
3846;DHT22;1938;50.812;7.738;2022-08-21T16:46:36;25.60;1.00
3846;DHT22;1938;50.812;7.738;2022-08-21T16:49:03;25.60;1.00
3846;DHT22;1938;50.812;7.738;2022-08-21T16:51:28;25.50;1.00
3846;DHT22;1938;50.812;7.738;2022-08-21T16:53:56;25.40;1.00
3846;DHT22;1938;50.812;7.738;2022-08-21T16:56:22;25.40;1.00
3846;DHT22;1938;50.812;7.738;2022-08-21T16:58:48;25.30;1.00
3846;DHT22;1938;50.812;7.738;2022-08-21T17:01:17;25.20;1.00
3846;DHT22;1938;50.812;7.738;2022-08-21T17:03:46;25.10;1.00
3846;DHT22;1938;50.812;7.738;2022-08-21T17:06:14;25.10;1.00
3846;DHT22;1938;50.812;7.738;2022-08-21T17:08:40;25.00;1.00
3846;DHT22;1938;50.812;7.738;2022-08-21T17:11:10;25.00;1.00
3846;DHT22;1938;50.812;7.738;2022-08-21T17:13:37;25.10;1.00
3846;DHT22;1938;50.812;7.738;2022-08-21T17:16:03;25.00;1.00
3846;DHT22;1938;50.812;7.738;2022-08-21T17:18:28;24.90;1.00
3846;DHT22;1938;50.812;7.738;2022-08-21T17:20:54;24.90;1.00
3846;DHT22;1938;50.812;7.738;2022-08-21T17:23:20;24.80;1.00
3846;DHT22;1938;50.812;7.738;2022-08-21T17:25:48;24.70;1.00
3846;DHT22;1938;50.812;7.738;2022-08-21T17:28:20;24.60;1.00
3846;DHT22;1938;50.812;7.738;2022-08-21T17:30:46;24.50;1.00
3846;DHT22;1938;50.812;7.738;2022-08-21T17:33:13;24.60;1.00
3846;DHT22;1938;50.812;7.738;2022-08-21T17:35:39;24.60;1.00
3846;DHT22;1938;50.812;7.738;2022-08-21T17:38:06;24.40;1.00
3846;DHT22;1938;50.812;7.738;2022-08-21T17:40:32;24.30;1.00